Latest Weather Observations for Maria Island

IDT60901

Issued at 9:51 pm EST Sunday 1 May 2016 (issued every 10 minutes, with the page automatically refreshed every 10 minutes)

About weather observations | Map of Hobart area stations | Latest observations for Hobart area | Other Formats
Station Details ID: 092124 Name: MARIA ISLAND (POINT LESUEUR) Lat: -42.66 Lon: 148.02 Height: 28.0 m
Data from the previous 72 hours. | See also: Recent months at Maria Island
Date/Time
EST
Tmp

°C
App
Tmp
°C
Dew
Point
°C
Rel
Hum
%
Delta-T

°C
Wind Press
QNH
hPa
Press
MSL
hPa
Rain
since
9 am
mm
Dir
 
Spd
km/h
Gust
km/h
Spd
kts
Gust
kts
01/09:30pm 12.0 - - - - W 32 50 17 27 998.0 998.0 3.6
01/09:17pm 12.0 - - - - W 33 54 18 29 997.7 997.7 3.6
01/09:00pm 12.1 - - - - W 35 50 19 27 997.3 997.3 3.6
01/08:33pm 12.0 - - - - W 37 59 20 32 995.9 995.9 3.6
01/08:30pm 11.9 - - - - W 39 50 21 27 996.1 996.1 3.6
01/08:10pm 11.8 - - - - W 35 54 19 29 995.5 995.5 3.6
01/08:00pm 11.7 - - - - W 32 43 17 23 995.0 995.0 3.4
01/07:30pm 11.2 - - - - W 33 46 18 25 994.1 994.1 3.4
01/07:16pm 11.1 - - - - W 39 57 21 31 993.6 993.6 3.4
01/07:00pm 11.2 - - - - W 39 56 21 30 992.9 992.9 3.2
01/06:30pm 11.7 - - - - W 44 56 24 30 991.6 991.6 2.8
01/06:18pm 11.8 - - - - W 57 76 31 41 990.7 990.7 2.6
01/06:08pm 12.3 - - - - W 56 80 30 43 989.6 989.6 2.4
01/06:03pm 12.8 - - - - W 43 61 23 33 989.8 989.8 2.0
01/06:00pm 13.0 - - - - W 41 59 22 32 989.8 989.8 2.0
01/05:30pm 13.9 - - - - WNW 39 50 21 27 988.8 988.8 2.0
01/05:00pm 15.0 - - - - WNW 32 43 17 23 987.7 987.7 2.0
01/04:30pm 14.8 - - - - NNW 20 28 11 15 987.2 987.2 2.0
01/04:00pm 15.2 - - - - NNW 20 24 11 13 987.2 987.2 2.0
01/03:30pm 14.9 - - - - N 24 28 13 15 987.1 987.1 2.0
01/03:00pm 14.9 - - - - N 33 43 18 23 986.6 986.6 2.0
01/02:30pm 15.0 - - - - N 19 24 10 13 987.0 987.0 2.0
01/02:00pm 15.0 - - - - N 24 30 13 16 987.8 987.8 2.0
01/01:30pm 14.6 - - - - N 28 35 15 19 988.6 988.6 2.0
01/01:00pm 14.3 - - - - N 28 35 15 19 989.5 989.5 2.0
01/12:30pm 14.7 - - - - NNW 37 46 20 25 990.5 990.5 2.0
01/12:14pm 13.4 - - - - N 32 63 17 34 991.6 991.6 2.0
01/12:12pm 13.4 - - - - N 24 63 13 34 992.1 992.1 2.0
01/12:00pm 15.8 - - - - N 17 19 9 10 991.7 991.7 1.4
01/11:30am 16.3 - - - - NNW 15 17 8 9 992.6 992.6 1.4
01/11:00am 15.6 - - - - NNW 15 19 8 10 992.8 992.8 1.4
01/10:30am 15.4 - - - - N 17 20 9 11 993.3 993.3 1.4
01/10:00am 15.2 - - - - NNW 37 50 20 27 995.1 995.1 1.0
01/09:40am 15.4 - - - - NNW 35 52 19 28 994.9 994.9 0.2
01/09:30am 15.9 - - - - N 32 39 17 21 995.4 995.4 0.0
01/09:06am 16.7 - - - - N 28 46 15 25 995.8 995.8 0.0
01/09:00am 16.8 - - - - N 13 26 7 14 995.6 995.6 0.4
01/08:30am 16.4 - - - - N 22 24 12 13 996.3 996.3 0.4
01/08:00am 17.5 - - - - N 33 41 18 22 997.0 997.0 0.4
01/07:30am 16.8 - - - - N 19 24 10 13 997.2 997.2 0.4
01/07:00am 16.6 - - - - N 28 32 15 17 998.0 998.0 0.4
01/06:30am 16.7 - - - - N 26 32 14 17 998.7 998.7 0.4
01/06:00am 17.4 - - - - NNE 28 33 15 18 999.2 999.1 0.4
01/05:30am 17.2 - - - - NNE 28 35 15 19 1000.2 1000.1 0.4
01/05:00am 17.1 - - - - NNE 32 37 17 20 1000.6 1000.5 0.4
01/04:57am 17.0 - - - - NNE 30 37 16 20 1000.7 1000.6 0.4
01/04:30am 16.4 - - - - NNW 13 19 7 10 1001.9 1001.8 0.4
01/04:00am 15.8 - - - - NW 9 17 5 9 1002.3 1002.2 0.4
01/03:30am 16.6 - - - - N 22 24 12 13 1002.1 1002.0 0.4
01/03:00am 16.0 - - - - NNW 13 15 7 8 1002.6 1002.5 0.2
01/02:30am 16.1 - - - - NW 11 17 6 9 1003.6 1003.5 0.2
01/02:00am 17.3 - - - - N 26 30 14 16 1004.0 1003.9 0.0
01/01:30am 16.9 - - - - N 19 24 10 13 1004.7 1004.6 0.0
01/01:00am 16.9 - - - - N 24 28 13 15 1005.4 1005.3 0.0
01/12:30am 16.6 - - - - NW 22 33 12 18 1006.2 1006.1 0.0
01/12:00am 17.5 - - - - N 30 37 16 20 1005.8 1005.7 0.0
 
Date/Time
EST
Tmp

°C
App
Tmp
°C
Dew
Point
°C
Rel
Hum
%
Delta-T

°C
Wind Press
QNH
hPa
Press
MSL
hPa
Rain
since
9 am
mm
Dir
 
Spd
km/h
Gust
km/h
Spd
kts
Gust
kts
30/11:30pm 17.5 - - - - N 33 41 18 22 1006.1 1006.0 0.0
30/11:00pm 17.2 - - - - N 30 33 16 18 1006.7 1006.6 0.0
30/10:30pm 17.3 - - - - N 30 35 16 19 1007.2 1007.2 0.0
30/10:00pm 17.4 - - - - N 32 37 17 20 1007.4 1007.4 0.0
30/09:30pm 17.4 - - - - N 26 30 14 16 1007.7 1007.7 0.0
30/09:00pm 18.1 - - - - N 26 33 14 18 1007.8 1007.8 0.0
30/08:30pm 18.2 - - - - N 30 35 16 19 1007.7 1007.7 0.0
30/08:00pm 18.0 - - - - N 30 37 16 20 1008.0 1008.0 0.0
30/07:30pm 18.2 - - - - N 35 44 19 24 1007.9 1007.9 0.0
30/07:00pm 18.0 - - - - N 32 37 17 20 1008.0 1008.0 0.0
30/06:30pm 18.3 - - - - N 37 46 20 25 1007.7 1007.7 0.0
30/06:00pm 18.5 - - - - N 39 46 21 25 1007.6 1007.6 0.0
30/05:30pm 18.6 - - - - N 39 44 21 24 1007.6 1007.6 0.0
30/05:00pm 18.6 - - - - N 33 41 18 22 1007.6 1007.6 0.0
30/04:30pm 19.0 - - - - N 33 41 18 22 1007.4 1007.4 0.0
30/04:00pm 19.1 - - - - N 32 37 17 20 1007.6 1007.6 0.0
30/03:30pm 19.5 - - - - N 28 33 15 18 1007.7 1007.7 0.0
30/03:00pm 19.1 - - - - N 28 41 15 22 1008.1 1008.1 0.0
30/02:30pm 19.0 - - - - N 28 32 15 17 1008.0 1008.0 0.0
30/02:00pm 18.7 - - - - NNE 33 37 18 20 1008.1 1008.1 0.0
30/01:30pm 18.8 - - - - N 30 37 16 20 1008.4 1008.4 0.0
30/01:00pm 19.6 - - - - N 33 41 18 22 1008.3 1008.3 0.0
30/12:30pm 19.1 - - - - N 35 41 19 22 1008.8 1008.8 0.0
30/12:00pm 19.8 - - - - N 35 43 19 23 1009.5 1009.5 0.0
30/11:30am 19.2 - - - - N 35 44 19 24 1010.3 1010.3 0.0
30/11:00am 19.2 - - - - N 28 37 15 20 1010.7 1010.7 0.0
30/10:30am 19.2 - - - - N 19 24 10 13 1011.0 1011.0 0.0
30/10:00am 17.8 - - - - NNE 15 19 8 10 1011.6 1011.6 0.0
30/09:30am 17.7 - - - - N 11 17 6 9 1011.9 1011.9 0.0
30/09:00am 17.0 - - - - N 17 22 9 12 1012.0 1012.0 0.0
30/08:30am 16.2 - - - - NNW 17 20 9 11 1012.0 1012.0 0.0
30/08:00am 15.7 - - - - NNW 19 28 10 15 1012.2 1012.2 0.0
30/07:30am 14.9 - - - - N 15 17 8 9 1012.0 1012.0 0.0
30/07:00am 14.3 - - - - N 9 11 5 6 1011.7 1011.7 0.0
30/06:30am 14.0 - - - - NNW 7 9 4 5 1011.6 1011.6 0.0
30/06:00am 14.0 - - - - W 7 9 4 5 1011.5 1011.5 0.0
30/05:30am 14.0 - - - - W 9 13 5 7 1011.4 1011.4 0.0
30/05:00am 15.1 - - - - NW 20 26 11 14 1011.2 1011.2 0.0
30/04:30am 15.5 - - - - NW 22 24 12 13 1010.9 1010.9 0.0
30/04:00am 15.6 - - - - NNW 24 30 13 16 1010.5 1010.5 0.0
30/03:30am 15.6 - - - - NW 17 20 9 11 1010.5 1010.5 0.0
30/03:00am 15.6 - - - - NW 19 24 10 13 1010.5 1010.5 0.0
30/02:30am 16.2 - - - - NW 26 32 14 17 1010.4 1010.4 0.0
30/02:00am 16.2 - - - - NNW 24 28 13 15 1010.2 1010.2 0.0
30/01:30am 16.3 - - - - NNW 19 24 10 13 1010.1 1010.1 0.0
30/01:00am 16.8 - - - - N 26 35 14 19 1010.0 1010.0 0.0
30/12:30am 17.1 - - - - N 24 39 13 21 1010.0 1010.0 0.0
30/12:00am 16.8 - - - - N 30 35 16 19 1009.8 1009.8 0.0
 
Date/Time
EST
Tmp

°C
App
Tmp
°C
Dew
Point
°C
Rel
Hum
%
Delta-T

°C
Wind Press
QNH
hPa
Press
MSL
hPa
Rain
since
9 am
mm
Dir
 
Spd
km/h
Gust
km/h
Spd
kts
Gust
kts
29/11:30pm 16.6 - - - - NNW 20 24 11 13 1009.8 1009.8 0.0
29/11:00pm 16.8 - - - - NNW 26 35 14 19 1009.7 1009.7 0.0
29/10:30pm 16.8 - - - - N 26 32 14 17 1010.0 1010.0 0.0
29/10:00pm 16.9 - - - - N 20 26 11 14 1010.1 1010.1 0.0
29/09:30pm 17.1 - - - - N 32 39 17 21 1009.9 1009.9 0.0
29/09:00pm 17.4 - - - - N 32 39 17 21 1009.8 1009.8 0.0
29/08:30pm 17.5 - - - - N 33 41 18 22 1008.9 1008.9 0.0
29/08:00pm 17.6 - - - - N 33 43 18 23 1008.4 1008.4 0.0
29/07:30pm 17.6 - - - - N 35 43 19 23 1008.7 1008.7 0.0
29/07:00pm 17.8 - - - - N 37 46 20 25 1008.7 1008.7 0.0
29/06:30pm 18.3 - - - - NNW 41 56 22 30 1009.1 1009.1 0.0
29/06:23pm 18.3 - - - - NNW 44 56 24 30 1008.9 1008.9 0.0
29/06:00pm 18.5 - - - - NNW 30 35 16 19 1009.2 1009.2 0.0
29/05:30pm 18.6 - - - - N 33 41 18 22 1008.9 1008.9 0.0
29/05:00pm 18.9 - - - - N 44 59 24 32 1008.5 1008.5 0.0
29/04:30pm 19.4 - - - - NNW 43 57 23 31 1008.1 1008.1 0.0
29/04:00pm 19.2 - - - - NNW 37 44 20 24 1008.5 1008.5 0.0
29/03:30pm 19.7 - - - - N 33 41 18 22 1008.8 1008.8 0.0
29/03:00pm 19.1 - - - - N 24 30 13 16 1009.0 1009.0 0.0
29/02:30pm 18.6 - - - - N 26 28 14 15 1009.0 1009.0 0.0
29/02:00pm 19.0 - - - - N 24 28 13 15 1009.1 1009.1 0.0
29/01:30pm 19.3 - - - - N 19 22 10 12 1009.3 1009.3 0.0
29/01:00pm 19.1 - - - - NNE 20 26 11 14 1009.9 1009.9 0.0
29/12:30pm 19.2 - - - - N 24 32 13 17 1010.6 1010.6 0.0
29/12:00pm 18.9 - - - - N 22 28 12 15 1011.2 1011.2 0.0
29/11:30am 17.9 - - - - N 22 28 12 15 1012.0 1012.0 0.0
29/11:00am 17.1 - - - - N 26 28 14 15 1012.3 1012.3 0.0
29/10:30am 16.8 - - - - N 24 28 13 15 1012.9 1012.9 0.0
29/10:00am 16.4 - - - - N 26 30 14 16 1013.3 1013.3 0.0
29/09:30am 16.1 - - - - N 28 32 15 17 1014.1 1014.1 0.0
29/09:00am 16.0 - - - - N 30 33 16 18 1014.5 1014.5 0.4
29/08:30am 16.2 - - - - N 32 35 17 19 1014.8 1014.8 0.4
29/08:00am 16.1 - - - - N 30 35 16 19 1014.9 1014.9 0.4
29/07:30am 16.2 - - - - N 28 32 15 17 1014.9 1014.9 0.4
29/07:00am 16.0 - - - - N 22 26 12 14 1014.9 1014.9 0.4
29/06:30am 15.9 - - - - N 20 22 11 12 1015.2 1015.2 0.4
29/06:00am 15.9 - - - - N 19 22 10 12 1015.4 1015.4 0.4
29/05:30am 15.9 - - - - N 20 24 11 13 1015.6 1015.6 0.4
29/05:00am 15.8 - - - - N 19 24 10 13 1015.6 1015.6 0.4
29/04:30am 15.8 - - - - N 19 20 10 11 1015.8 1015.8 0.4
29/04:00am 15.9 - - - - N 13 15 7 8 1016.4 1016.4 0.4
29/03:30am 16.4 - - - - NNW 11 17 6 9 1016.9 1016.9 0.4
29/03:00am 16.1 - - - - CALM 0 0 0 0 1017.1 1017.1 0.4
29/02:30am 16.0 - - - - NE 4 4 2 2 1017.4 1017.4 0.4
29/02:00am 15.6 - - - - CALM 0 0 0 0 1017.5 1017.5 0.4
29/01:30am 15.8 - - - - NNE 2 4 1 2 1017.8 1017.8 0.4
29/01:00am 15.6 - - - - NE 4 6 2 3 1018.0 1018.0 0.4
29/12:30am 15.7 - - - - CALM 0 0 0 0 1018.1 1018.1 0.4
29/12:00am 15.5 - - - - CALM 0 0 0 0 1017.9 1017.9 0.4
 
Date/Time
EST
Tmp

°C
App
Tmp
°C
Dew
Point
°C
Rel
Hum
%
Delta-T

°C
Wind Press
QNH
hPa
Press
MSL
hPa
Rain
since
9 am
mm
Dir
 
Spd
km/h
Gust
km/h
Spd
kts
Gust
kts
28/11:30pm 15.3 - - - - CALM 0 0 0 0 1018.1 1018.1 0.4
28/11:00pm 15.4 - - - - CALM 0 4 0 2 1018.4 1018.4 0.4
28/10:30pm 15.0 - - - - ESE 4 6 2 3 1018.7 1018.7 0.4
28/10:00pm 14.9 - - - - E 2 4 1 2 1018.8 1018.8 0.4

Latest Capital City Observations: Canberra | Sydney | Melbourne | Brisbane | Adelaide | Perth | Hobart | Darwin

Other Formats:

Comma delimited format used in spreadsheet applications
http://www.bom.gov.au/fwo/IDT60901/IDT60901.95988.axf

JavaScript Object Notation format (JSON) in row-major order
http://www.bom.gov.au/fwo/IDT60901/IDT60901.95988.json